createdAt,value
2023-06-30T00:01:50.105Z,3.20
2023-06-30T00:04:19.774Z,3.20
2023-06-30T00:06:50.881Z,3.47
2023-06-30T00:09:19.738Z,2.83
2023-06-30T00:11:51.233Z,3.50
2023-06-30T00:14:19.986Z,3.00
2023-06-30T00:16:48.520Z,3.35
2023-06-30T00:19:16.654Z,3.03
2023-06-30T00:21:46.288Z,3.70
2023-06-30T00:24:14.927Z,3.47
2023-06-30T00:26:43.271Z,3.45
2023-06-30T00:29:13.611Z,3.58
2023-06-30T00:31:41.858Z,3.20
2023-06-30T00:34:10.594Z,3.58
2023-06-30T00:36:39.928Z,3.30
2023-06-30T00:39:08.181Z,3.50
2023-06-30T00:41:36.387Z,3.30
2023-06-30T00:44:04.970Z,3.30
2023-06-30T00:46:34.756Z,3.10
2023-06-30T00:49:03.682Z,3.30
2023-06-30T00:51:32.095Z,3.10
2023-06-30T00:54:00.552Z,3.53
2023-06-30T00:56:29.069Z,3.40
2023-06-30T00:58:58.392Z,3.88
2023-06-30T01:01:37.353Z,3.95
2023-06-30T01:04:15.007Z,3.70
2023-06-30T01:06:52.612Z,3.42
2023-06-30T01:09:24.465Z,2.95
2023-06-30T01:11:53.531Z,3.30
2023-06-30T01:14:25.017Z,3.40
2023-06-30T01:16:55.426Z,4.18
2023-06-30T01:19:29.549Z,3.25
2023-06-30T01:22:04.928Z,3.95
2023-06-30T01:24:36.634Z,4.00
2023-06-30T01:27:05.844Z,3.72
2023-06-30T01:29:35.038Z,4.03
2023-06-30T01:32:05.069Z,3.65
2023-06-30T01:34:34.246Z,3.80
2023-06-30T01:37:04.041Z,3.95
2023-06-30T01:39:32.692Z,4.05
2023-06-30T01:42:01.900Z,3.78
2023-06-30T01:44:30.308Z,3.95
2023-06-30T01:46:58.490Z,3.58
2023-06-30T01:49:29.064Z,3.47
2023-06-30T01:51:57.279Z,3.80
2023-06-30T01:54:25.748Z,3.08
2023-06-30T01:56:54.109Z,3.90
2023-06-30T01:59:22.492Z,3.47
2023-06-30T02:01:50.846Z,3.33
2023-06-30T02:04:19.338Z,3.80
2023-06-30T02:06:50.322Z,3.90
2023-06-30T02:09:18.548Z,4.18
2023-06-30T02:11:46.926Z,3.72
2023-06-30T02:14:18.148Z,3.55
2023-06-30T02:16:46.575Z,3.58
2023-06-30T02:19:17.358Z,3.75
2023-06-30T02:21:45.693Z,4.00
2023-06-30T02:24:15.530Z,4.20
2023-06-30T02:26:43.832Z,4.20
2023-06-30T02:29:12.185Z,4.22
2023-06-30T02:31:40.500Z,4.32
2023-06-30T02:34:08.761Z,3.80
2023-06-30T02:36:36.877Z,3.63
2023-06-30T02:39:05.652Z,3.92
2023-06-30T02:41:35.452Z,4.35
2023-06-30T02:44:03.922Z,5.07
2023-06-30T02:46:32.460Z,4.10
2023-06-30T02:49:01.718Z,4.13
2023-06-30T02:51:29.983Z,4.25
2023-06-30T02:53:58.169Z,3.63
2023-06-30T02:56:26.570Z,3.90
2023-06-30T02:58:57.256Z,4.22
2023-06-30T03:01:26.341Z,4.25
2023-06-30T03:03:54.699Z,4.35
2023-06-30T03:06:27.329Z,4.47
2023-06-30T03:08:55.906Z,4.47
2023-06-30T03:11:28.402Z,4.05
2023-06-30T03:13:57.982Z,3.80
2023-06-30T03:16:32.109Z,4.22
2023-06-30T03:19:01.483Z,4.05
2023-06-30T03:21:31.705Z,4.32
2023-06-30T03:23:59.934Z,4.20
2023-06-30T03:26:29.870Z,3.80
2023-06-30T03:28:59.776Z,4.07
2023-06-30T03:31:31.477Z,4.25
2023-06-30T03:34:00.842Z,4.75
2023-06-30T03:36:30.264Z,4.18
2023-06-30T03:38:58.393Z,4.28
2023-06-30T03:41:28.133Z,5.03
2023-06-30T03:44:00.090Z,4.20
2023-06-30T03:46:29.671Z,4.25
2023-06-30T03:48:57.947Z,4.35
2023-06-30T03:51:26.231Z,4.55
2023-06-30T03:53:55.348Z,4.90
2023-06-30T03:56:25.397Z,4.85
2023-06-30T03:58:53.808Z,4.93
2023-06-30T04:01:24.612Z,4.50
2023-06-30T04:03:54.562Z,5.15
2023-06-30T04:06:23.198Z,5.25
2023-06-30T04:08:51.797Z,4.80
2023-06-30T04:11:24.124Z,5.28
2023-06-30T04:13:52.448Z,5.25
2023-06-30T04:16:21.062Z,5.18
2023-06-30T04:18:50.759Z,4.75
2023-06-30T04:21:19.384Z,4.85
2023-06-30T04:23:48.102Z,5.15
2023-06-30T04:26:18.353Z,5.85
2023-06-30T04:28:47.992Z,5.40
2023-06-30T04:31:16.839Z,5.57
2023-06-30T04:33:45.103Z,6.03
2023-06-30T04:36:14.969Z,5.50
2023-06-30T04:38:43.884Z,5.70
2023-06-30T04:41:12.233Z,6.18
2023-06-30T04:43:40.469Z,5.60
2023-06-30T04:46:08.956Z,5.53
2023-06-30T04:48:37.989Z,5.10
2023-06-30T04:51:06.199Z,5.43
2023-06-30T04:53:36.178Z,6.18
2023-06-30T04:56:04.402Z,5.53
2023-06-30T04:58:32.787Z,6.32
2023-06-30T05:01:01.037Z,6.57
2023-06-30T05:03:29.398Z,7.03
2023-06-30T05:05:59.462Z,6.70
2023-06-30T05:08:27.846Z,6.32
2023-06-30T05:10:57.445Z,7.03
2023-06-30T05:13:29.988Z,6.95
2023-06-30T05:15:58.421Z,6.60
2023-06-30T05:18:26.717Z,6.50
2023-06-30T05:20:56.424Z,6.53
2023-06-30T05:23:25.463Z,6.45
2023-06-30T05:25:54.212Z,4.75
2023-06-30T05:28:26.222Z,4.80
2023-06-30T05:30:54.558Z,4.47
2023-06-30T05:33:22.905Z,4.90
2023-06-30T05:35:51.517Z,5.40
2023-06-30T05:38:19.733Z,5.18
2023-06-30T05:40:48.215Z,5.03
2023-06-30T05:43:19.149Z,4.63
2023-06-30T05:45:50.733Z,5.38
2023-06-30T05:48:19.282Z,4.07
2023-06-30T05:50:48.129Z,4.22
2023-06-30T05:53:16.586Z,4.60
2023-06-30T05:55:45.301Z,3.60
2023-06-30T05:58:13.803Z,3.25
2023-06-30T06:00:42.049Z,3.17
2023-06-30T06:03:11.938Z,4.03
2023-06-30T06:05:40.431Z,3.15
2023-06-30T06:08:08.863Z,3.35
2023-06-30T06:10:37.320Z,3.45
2023-06-30T06:13:05.915Z,3.55
2023-06-30T06:15:34.224Z,3.25
2023-06-30T06:18:02.705Z,3.35
2023-06-30T06:20:32.442Z,3.40
2023-06-30T06:23:00.635Z,3.03
2023-06-30T06:25:28.981Z,3.10
2023-06-30T06:27:57.333Z,2.95
2023-06-30T06:30:27.766Z,2.95
2023-06-30T06:32:56.248Z,2.75
2023-06-30T06:35:24.547Z,3.42
2023-06-30T06:37:56.258Z,3.42
2023-06-30T06:40:25.648Z,2.45
2023-06-30T06:42:55.765Z,2.38
2023-06-30T06:45:28.716Z,3.00
2023-06-30T06:48:24.305Z,2.90
2023-06-30T06:50:54.740Z,2.58
2023-06-30T06:53:29.808Z,2.75
2023-06-30T06:55:59.306Z,3.00
2023-06-30T06:59:24.532Z,3.03
2023-06-30T07:01:54.891Z,3.45
2023-06-30T07:04:23.240Z,3.40
2023-06-30T07:07:23.769Z,2.78
2023-06-30T07:09:55.541Z,2.75
2023-06-30T07:12:23.909Z,3.00
2023-06-30T07:14:59.141Z,3.05
2023-06-30T07:17:28.560Z,2.65
2023-06-30T07:19:56.922Z,2.85
2023-06-30T07:22:26.233Z,2.78
2023-06-30T07:24:57.080Z,2.60
2023-06-30T07:27:29.008Z,1.90
2023-06-30T07:29:57.395Z,2.70
2023-06-30T07:32:25.782Z,2.47
2023-06-30T07:34:54.108Z,2.72
2023-06-30T07:37:22.377Z,2.97
2023-06-30T07:39:50.931Z,2.78
2023-06-30T07:42:20.590Z,2.35
2023-06-30T07:44:50.448Z,2.30
2023-06-30T07:47:19.946Z,2.10
2023-06-30T07:49:48.800Z,2.20
2023-06-30T07:52:20.092Z,2.25
2023-06-30T07:54:50.405Z,2.00
2023-06-30T07:57:20.205Z,1.80
2023-06-30T07:59:48.702Z,2.00
2023-06-30T08:02:35.081Z,2.00
2023-06-30T08:05:03.637Z,2.00
2023-06-30T08:07:49.698Z,1.80
2023-06-30T08:10:20.225Z,1.80
2023-06-30T08:12:49.802Z,1.95
2023-06-30T08:15:18.298Z,1.90
2023-06-30T08:17:55.327Z,1.83
2023-06-30T08:20:27.325Z,2.22
2023-06-30T08:22:56.379Z,1.70
2023-06-30T08:25:25.400Z,1.60
2023-06-30T08:27:55.169Z,1.83
2023-06-30T08:30:25.228Z,1.83
2023-06-30T08:32:56.230Z,2.10
2023-06-30T08:35:25.962Z,1.67
2023-06-30T08:37:54.769Z,1.88
2023-06-30T08:40:30.774Z,1.90
2023-06-30T08:43:03.385Z,2.15
2023-06-30T08:45:32.920Z,2.00
2023-06-30T08:48:08.504Z,1.70
2023-06-30T08:50:37.466Z,1.75
2023-06-30T08:53:07.101Z,1.80
2023-06-30T08:55:35.470Z,1.98
2023-06-30T08:58:13.422Z,1.70
2023-06-30T09:00:51.993Z,1.48
2023-06-30T09:03:21.276Z,1.60
2023-06-30T09:05:52.399Z,1.83
2023-06-30T09:08:25.703Z,1.70
2023-06-30T09:10:56.347Z,1.80
2023-06-30T09:13:26.833Z,1.85
2023-06-30T09:16:00.287Z,1.35
2023-06-30T09:18:28.815Z,1.17
2023-06-30T09:21:02.192Z,1.80
2023-06-30T09:23:31.162Z,1.50
2023-06-30T09:25:59.729Z,1.20
2023-06-30T09:28:36.835Z,1.50
2023-06-30T09:31:05.470Z,1.50
2023-06-30T09:33:37.188Z,1.65
2023-06-30T09:36:06.198Z,1.17
2023-06-30T09:38:37.512Z,1.52
2023-06-30T09:41:07.511Z,1.10
2023-06-30T09:43:45.172Z,1.27
2023-06-30T09:46:14.704Z,1.38
2023-06-30T09:48:44.555Z,1.33
2023-06-30T09:51:20.622Z,1.17
2023-06-30T09:53:53.239Z,1.20
2023-06-30T09:56:23.178Z,1.60
2023-06-30T09:58:58.392Z,1.35
2023-06-30T10:01:27.237Z,0.90
2023-06-30T10:03:57.203Z,1.20
2023-06-30T10:06:26.612Z,1.30
2023-06-30T10:08:59.465Z,1.27
2023-06-30T10:11:30.974Z,1.90
2023-06-30T10:14:01.786Z,1.20
2023-06-30T10:16:31.377Z,1.60
2023-06-30T10:19:04.178Z,1.17
2023-06-30T10:21:32.612Z,1.30
2023-06-30T10:24:07.536Z,1.30
2023-06-30T10:29:06.582Z,1.27
2023-06-30T10:31:46.071Z,1.27
2023-06-30T10:34:17.644Z,1.98
2023-06-30T10:36:48.119Z,1.60
2023-06-30T10:39:16.852Z,1.15
2023-06-30T10:41:50.628Z,1.50
2023-06-30T10:44:23.874Z,1.33
2023-06-30T10:46:54.820Z,1.67
2023-06-30T10:49:28.419Z,1.13
2023-06-30T10:51:58.381Z,1.23
2023-06-30T10:54:31.163Z,1.30
2023-06-30T10:57:08.159Z,1.13
2023-06-30T10:59:41.128Z,1.55
2023-06-30T11:02:14.220Z,1.33
2023-06-30T11:04:43.732Z,1.30
2023-06-30T11:07:13.051Z,1.30
2023-06-30T11:10:03.245Z,1.20
2023-06-30T11:12:53.841Z,1.17
2023-06-30T11:15:37.862Z,1.10
2023-06-30T11:18:11.908Z,1.20
2023-06-30T11:20:40.704Z,1.42
2023-06-30T11:23:19.395Z,1.27
2023-06-30T11:25:48.783Z,1.05
2023-06-30T11:28:18.106Z,1.08
2023-06-30T11:30:47.873Z,1.30
2023-06-30T11:33:19.404Z,1.13
2023-06-30T11:35:52.258Z,1.20
2023-06-30T11:38:20.926Z,1.38
2023-06-30T11:40:51.294Z,1.00
2023-06-30T11:43:23.274Z,1.10
2023-06-30T11:46:03.145Z,1.17
2023-06-30T11:48:40.074Z,0.90
2023-06-30T11:51:08.590Z,1.20
2023-06-30T11:53:37.718Z,1.20
2023-06-30T11:56:06.628Z,1.10
2023-06-30T11:58:34.876Z,1.02
2023-06-30T12:01:05.396Z,0.90
2023-06-30T12:03:33.831Z,1.00
2023-06-30T12:06:02.884Z,1.45
2023-06-30T12:08:32.108Z,1.30
2023-06-30T12:11:01.422Z,1.15
2023-06-30T12:13:30.260Z,1.20
2023-06-30T12:16:01.490Z,0.90
2023-06-30T12:18:37.927Z,1.10
2023-06-30T12:21:11.114Z,1.45
2023-06-30T12:23:43.292Z,1.08
2023-06-30T12:26:12.435Z,1.20
2023-06-30T12:28:41.029Z,1.13
2023-06-30T12:31:09.792Z,0.90
2023-06-30T12:33:39.664Z,0.90
2023-06-30T12:36:08.485Z,1.20
2023-06-30T12:38:36.899Z,1.08
2023-06-30T12:41:05.565Z,1.20
2023-06-30T12:43:35.036Z,0.98
2023-06-30T12:46:04.598Z,0.85
2023-06-30T12:48:33.744Z,0.93
2023-06-30T12:51:03.433Z,0.98
2023-06-30T12:53:32.087Z,1.05
2023-06-30T12:56:00.456Z,0.90
2023-06-30T12:58:28.759Z,1.20
2023-06-30T13:01:05.278Z,1.42
2023-06-30T13:03:36.042Z,1.00
2023-06-30T13:06:06.221Z,1.17
2023-06-30T13:08:36.800Z,1.05
2023-06-30T13:11:12.548Z,1.08
2023-06-30T13:13:42.104Z,0.90
2023-06-30T13:16:10.796Z,1.08
2023-06-30T13:18:39.456Z,1.20
2023-06-30T13:21:10.845Z,0.98
2023-06-30T13:23:40.708Z,0.95
2023-06-30T13:26:09.845Z,1.10
2023-06-30T13:28:38.419Z,1.10
2023-06-30T13:31:08.226Z,1.20
2023-06-30T13:33:36.697Z,1.08
2023-06-30T13:36:05.917Z,1.35
2023-06-30T13:38:43.518Z,1.00
2023-06-30T13:41:12.383Z,1.20
2023-06-30T13:43:40.925Z,1.23
2023-06-30T13:46:09.574Z,1.13
2023-06-30T13:48:39.664Z,1.10
2023-06-30T13:51:08.634Z,1.13
2023-06-30T13:53:40.548Z,1.20
2023-06-30T13:56:10.545Z,1.33
2023-06-30T13:58:39.335Z,1.10
2023-06-30T14:01:07.872Z,1.30
2023-06-30T14:03:37.054Z,1.00
2023-06-30T14:06:05.801Z,1.33
2023-06-30T14:08:35.602Z,1.17
2023-06-30T14:11:04.016Z,0.95
2023-06-30T14:13:33.742Z,1.20
2023-06-30T14:16:02.024Z,1.08
2023-06-30T14:18:30.278Z,1.00
2023-06-30T14:20:59.629Z,1.00
2023-06-30T14:23:28.592Z,1.10
2023-06-30T14:25:57.154Z,1.08
2023-06-30T14:28:25.761Z,1.30
2023-06-30T14:30:55.714Z,1.17
2023-06-30T14:33:24.031Z,1.25
2023-06-30T14:35:52.337Z,1.00
2023-06-30T14:38:22.161Z,0.98
2023-06-30T14:40:50.633Z,1.10
2023-06-30T14:43:19.540Z,1.20
2023-06-30T14:45:48.179Z,1.10
2023-06-30T14:48:18.231Z,1.00
2023-06-30T14:50:46.825Z,1.20
2023-06-30T14:53:15.235Z,1.10
2023-06-30T14:55:44.073Z,1.23
2023-06-30T14:58:13.083Z,1.05
2023-06-30T15:00:41.515Z,1.30
2023-06-30T15:03:10.037Z,1.30
2023-06-30T15:05:40.607Z,1.00
2023-06-30T15:08:09.474Z,1.27
2023-06-30T15:10:38.225Z,1.10
2023-06-30T15:13:06.971Z,1.20
2023-06-30T15:15:35.332Z,1.00
2023-06-30T15:18:03.918Z,0.90
2023-06-30T15:20:32.257Z,1.10
2023-06-30T15:23:03.871Z,1.30
2023-06-30T15:25:33.771Z,1.38
2023-06-30T15:28:02.756Z,1.10
2023-06-30T15:30:32.109Z,1.30
2023-06-30T15:33:00.600Z,1.13
2023-06-30T15:35:29.364Z,1.15
2023-06-30T15:38:00.174Z,1.65
2023-06-30T15:40:30.177Z,1.10
2023-06-30T15:42:58.357Z,1.00
2023-06-30T15:45:27.710Z,1.35
2023-06-30T15:47:57.443Z,1.10
2023-06-30T15:50:25.797Z,1.10
2023-06-30T15:52:53.874Z,1.02
2023-06-30T15:55:24.246Z,1.05
2023-06-30T15:57:57.274Z,1.10
2023-06-30T16:00:25.523Z,1.13
2023-06-30T16:02:55.867Z,1.23
2023-06-30T16:05:24.478Z,1.20
2023-06-30T16:07:52.814Z,1.20
2023-06-30T16:10:20.952Z,0.90
2023-06-30T16:12:49.222Z,1.00
2023-06-30T16:15:18.729Z,1.00
2023-06-30T16:17:46.931Z,1.10
2023-06-30T16:20:15.178Z,0.90
2023-06-30T16:22:43.252Z,1.05
2023-06-30T16:25:11.632Z,1.10
2023-06-30T16:27:39.751Z,1.10
2023-06-30T16:30:31.122Z,1.10
2023-06-30T16:33:02.068Z,1.02
2023-06-30T16:35:32.339Z,1.00
2023-06-30T16:38:00.451Z,1.17
2023-06-30T16:40:29.834Z,1.30
2023-06-30T16:42:57.945Z,0.98
2023-06-30T16:45:28.730Z,1.30
2023-06-30T16:47:56.893Z,1.38
2023-06-30T16:50:25.267Z,1.20
2023-06-30T16:52:53.493Z,4.03
2023-06-30T16:55:21.688Z,1.30
2023-06-30T16:57:50.873Z,1.13
2023-06-30T17:00:20.170Z,1.00
2023-06-30T17:02:51.498Z,1.10
2023-06-30T17:05:20.932Z,1.20
2023-06-30T17:07:50.400Z,1.30
2023-06-30T17:10:19.307Z,1.00
2023-06-30T17:12:48.422Z,1.40
2023-06-30T17:15:18.514Z,1.00
2023-06-30T17:17:48.136Z,1.17
2023-06-30T17:20:18.544Z,1.20
2023-06-30T17:22:47.210Z,1.00
2023-06-30T17:25:15.559Z,1.30
2023-06-30T17:27:44.671Z,1.02
2023-06-30T17:30:13.964Z,1.10
2023-06-30T17:32:42.813Z,1.15
2023-06-30T17:35:12.192Z,1.20
2023-06-30T17:37:42.099Z,1.35
2023-06-30T17:40:13.510Z,1.20
2023-06-30T17:42:42.570Z,1.30
2023-06-30T17:45:11.988Z,1.23
2023-06-30T17:47:44.163Z,1.48
2023-06-30T17:50:14.973Z,1.40
2023-06-30T17:52:46.451Z,1.65
2023-06-30T17:55:16.096Z,1.20
2023-06-30T17:57:45.640Z,1.40
2023-06-30T18:00:15.728Z,1.27
2023-06-30T18:02:46.108Z,1.17
2023-06-30T18:05:16.339Z,3.08
2023-06-30T18:07:47.227Z,2.13
2023-06-30T18:10:20.875Z,1.85
2023-06-30T18:12:49.294Z,1.73
2023-06-30T18:15:19.707Z,2.20
2023-06-30T18:17:54.637Z,2.47
2023-06-30T18:20:23.630Z,2.72
2023-06-30T18:22:53.918Z,2.13
2023-06-30T18:25:23.796Z,6.55
2023-06-30T18:27:52.906Z,4.63
2023-06-30T18:30:22.337Z,5.53
2023-06-30T18:32:51.612Z,4.50
2023-06-30T18:35:21.798Z,3.45
2023-06-30T18:37:50.786Z,3.55
2023-06-30T18:40:22.114Z,2.35
2023-06-30T18:42:51.294Z,2.08
2023-06-30T18:45:23.646Z,1.88
2023-06-30T18:47:52.898Z,2.10
2023-06-30T18:50:23.950Z,2.47
2023-06-30T18:52:54.268Z,2.20
2023-06-30T18:55:25.042Z,2.28
2023-06-30T18:57:53.313Z,2.83
2023-06-30T19:00:23.537Z,2.13
2023-06-30T19:02:52.322Z,2.58
2023-06-30T19:05:22.404Z,2.20
2023-06-30T19:07:51.926Z,1.60
2023-06-30T19:10:21.813Z,1.60
2023-06-30T19:12:52.907Z,2.25
2023-06-30T19:15:21.822Z,2.22
2023-06-30T19:17:50.937Z,2.15
2023-06-30T19:20:20.566Z,2.15
2023-06-30T19:22:50.764Z,3.40
2023-06-30T19:25:19.564Z,2.53
2023-06-30T19:27:48.044Z,2.53
2023-06-30T19:30:19.836Z,2.47
2023-06-30T19:32:49.486Z,2.30
2023-06-30T19:35:20.811Z,2.60
2023-06-30T19:37:50.840Z,2.72
2023-06-30T19:40:19.723Z,2.70
2023-06-30T19:42:49.624Z,2.10
2023-06-30T19:45:22.197Z,3.33
2023-06-30T19:47:51.437Z,2.80
2023-06-30T19:50:28.051Z,2.58
2023-06-30T19:52:58.080Z,3.30
2023-06-30T19:55:29.024Z,3.05
2023-06-30T19:57:59.792Z,2.70
2023-06-30T20:00:31.494Z,2.40
2023-06-30T20:03:01.740Z,2.70
2023-06-30T20:05:31.625Z,2.90
2023-06-30T20:08:00.082Z,4.22
2023-06-30T20:10:30.041Z,3.22
2023-06-30T20:12:59.732Z,3.60
2023-06-30T20:15:32.223Z,3.40
2023-06-30T20:18:02.263Z,3.28
2023-06-30T20:20:32.007Z,3.03
2023-06-30T20:23:01.804Z,3.30
2023-06-30T20:25:31.115Z,3.05
2023-06-30T20:28:01.747Z,3.60
2023-06-30T20:30:33.600Z,3.13
2023-06-30T20:33:02.734Z,3.20
2023-06-30T20:35:32.956Z,3.38
2023-06-30T20:38:02.287Z,3.33
2023-06-30T20:40:31.451Z,3.10
2023-06-30T20:43:00.959Z,2.80
2023-06-30T20:45:31.799Z,2.60
2023-06-30T20:48:02.121Z,2.78
2023-06-30T20:50:31.502Z,3.10
2023-06-30T20:53:01.478Z,2.90
2023-06-30T20:55:31.683Z,3.25
2023-06-30T20:58:00.430Z,3.83
2023-06-30T21:00:29.518Z,3.70
2023-06-30T21:02:57.957Z,3.50
2023-06-30T21:05:27.820Z,4.32
2023-06-30T21:07:57.379Z,5.13
2023-06-30T21:10:30.865Z,3.95
2023-06-30T21:13:01.130Z,4.97
2023-06-30T21:15:30.030Z,3.97
2023-06-30T21:17:58.497Z,4.15
2023-06-30T21:20:28.413Z,3.65
2023-06-30T21:22:56.731Z,3.40
2023-06-30T21:25:25.083Z,3.63
2023-06-30T21:27:53.333Z,4.13
2023-06-30T21:30:22.047Z,4.60
2023-06-30T21:32:50.518Z,3.92
2023-06-30T21:35:19.127Z,4.45
2023-06-30T21:37:48.965Z,4.50
2023-06-30T21:40:17.450Z,4.05
2023-06-30T21:42:46.481Z,4.53
2023-06-30T21:45:14.811Z,4.38
2023-06-30T21:47:44.467Z,4.18
2023-06-30T21:50:12.809Z,4.65
2023-06-30T21:52:41.038Z,4.63
2023-06-30T21:55:15.435Z,3.90
2023-06-30T21:57:43.828Z,4.00
2023-06-30T22:00:13.688Z,4.25
2023-06-30T22:02:46.193Z,3.70
2023-06-30T22:05:14.792Z,3.65
2023-06-30T22:07:43.166Z,3.60
2023-06-30T22:10:14.055Z,3.97
2023-06-30T22:12:42.309Z,4.05
2023-06-30T22:15:13.177Z,3.92
2023-06-30T22:17:42.032Z,3.95
2023-06-30T22:20:11.671Z,3.88
2023-06-30T22:22:40.014Z,3.75
2023-06-30T22:25:10.099Z,3.58
2023-06-30T22:27:40.013Z,4.35
2023-06-30T22:30:09.215Z,3.83
2023-06-30T22:32:37.819Z,3.42
2023-06-30T22:35:07.169Z,3.20
2023-06-30T22:37:35.448Z,4.03
2023-06-30T22:40:04.446Z,3.70
2023-06-30T22:42:32.751Z,4.07
2023-06-30T22:45:04.844Z,3.40
2023-06-30T22:47:33.241Z,3.45
2023-06-30T22:50:01.921Z,4.30
2023-06-30T22:52:30.257Z,3.70
2023-06-30T22:54:58.476Z,3.97
2023-06-30T22:57:26.679Z,3.70
2023-06-30T22:59:54.946Z,3.72
2023-06-30T23:02:24.784Z,4.00
2023-06-30T23:04:53.104Z,3.60
2023-06-30T23:07:21.456Z,3.47
2023-06-30T23:09:50.565Z,3.88
2023-06-30T23:12:18.834Z,3.65
2023-06-30T23:14:47.110Z,3.63
2023-06-30T23:17:17.580Z,4.03
2023-06-30T23:19:49.193Z,3.78
2023-06-30T23:22:18.196Z,3.75
2023-06-30T23:24:49.763Z,3.50
2023-06-30T23:27:19.371Z,3.50
2023-06-30T23:29:50.503Z,4.38
2023-06-30T23:32:20.617Z,3.65
2023-06-30T23:34:50.909Z,4.00
2023-06-30T23:37:19.764Z,3.95
2023-06-30T23:39:49.474Z,3.75
2023-06-30T23:42:17.867Z,4.22
2023-06-30T23:44:46.190Z,4.15
2023-06-30T23:47:17.447Z,3.58
2023-06-30T23:49:47.424Z,3.85
2023-06-30T23:52:17.895Z,4.00
2023-06-30T23:54:46.596Z,3.33
2023-06-30T23:57:14.949Z,3.55
2023-06-30T23:59:43.201Z,4.03
